<?xml version="1.0" encoding="UTF-8" standalone="no" ?>
<gpx xmlns="http://www.topografix.com/GPX/1/1" xmlns:xsi="http://www.w3.org/2001/XMLSchema-instance" xsi:schemaLocation="http://www.topografix.com/GPX/1/1 http://www.topografix.com/GPX/1/1/gpx.xsd" version="1.1" creator="VisuGPX - https://www.visugpx.com">
  <metadata>
    <name>Montillot Brosses 10 km</name>
    <desc><![CDATA[Brosses, Montillot 10km
Parking cimetière brosses ]]></desc>
  </metadata>
  <trk>
    <name><![CDATA[Montillot Brosses 12 km]]></name>
    <extensions>
      <line xmlns="http://www.topografix.com/GPX/gpx_style/0/2">
        <color>0000FF</color>
        <width>4</width>
      </line>
    </extensions>
    <trkseg>
      <trkpt lat="47.51894" lon="3.71994">
        <ele>233</ele>
        <time>2020-08-11T07:52:32+02:00</time>
      </trkpt>
      <trkpt lat="47.51957" lon="3.71919">
        <ele>228</ele>
        <time>2020-08-11T07:52:37+02:00</time>
      </trkpt>
      <trkpt lat="47.51986" lon="3.71846">
        <ele>226</ele>
        <time>2020-08-11T07:52:42+02:00</time>
      </trkpt>
      <trkpt lat="47.51999" lon="3.72026">
        <ele>226</ele>
        <time>2020-08-11T07:52:47+02:00</time>
      </trkpt>
      <trkpt lat="47.52055" lon="3.71981">
        <ele>222</ele>
        <time>2020-08-11T07:52:52+02:00</time>
      </trkpt>
      <trkpt lat="47.52096" lon="3.71864">
        <ele>221</ele>
        <time>2020-08-11T07:52:57+02:00</time>
      </trkpt>
      <trkpt lat="47.52107" lon="3.71802">
        <ele>222</ele>
        <time>2020-08-11T07:53:02+02:00</time>
      </trkpt>
      <trkpt lat="47.52127" lon="3.71792">
        <ele>222</ele>
        <time>2020-08-11T07:53:07+02:00</time>
      </trkpt>
      <trkpt lat="47.52234" lon="3.7192">
        <ele>220</ele>
        <time>2020-08-11T07:53:12+02:00</time>
      </trkpt>
      <trkpt lat="47.52281" lon="3.72038">
        <ele>217</ele>
        <time>2020-08-11T07:53:17+02:00</time>
      </trkpt>
      <trkpt lat="47.52451" lon="3.72176">
        <ele>215</ele>
        <time>2020-08-11T07:53:22+02:00</time>
      </trkpt>
      <trkpt lat="47.52628" lon="3.72151">
        <ele>212</ele>
        <time>2020-08-11T07:53:27+02:00</time>
      </trkpt>
      <trkpt lat="47.5278" lon="3.72142">
        <ele>211</ele>
        <time>2020-08-11T07:53:32+02:00</time>
      </trkpt>
      <trkpt lat="47.53037" lon="3.72221">
        <ele>211</ele>
        <time>2020-08-11T07:53:37+02:00</time>
      </trkpt>
      <trkpt lat="47.5284" lon="3.71698">
        <ele>217</ele>
        <time>2020-08-11T07:53:42+02:00</time>
      </trkpt>
      <trkpt lat="47.53003" lon="3.71511">
        <ele>218</ele>
        <time>2020-08-11T07:53:47+02:00</time>
      </trkpt>
      <trkpt lat="47.53119" lon="3.71438">
        <ele>220</ele>
        <time>2020-08-11T07:53:52+02:00</time>
      </trkpt>
      <trkpt lat="47.5324" lon="3.71404">
        <ele>223</ele>
        <time>2020-08-11T07:53:57+02:00</time>
      </trkpt>
      <trkpt lat="47.53167" lon="3.71351">
        <ele>229</ele>
        <time>2020-08-11T07:54:02+02:00</time>
      </trkpt>
      <trkpt lat="47.5312" lon="3.71218">
        <ele>244</ele>
        <time>2020-08-11T07:54:07+02:00</time>
      </trkpt>
      <trkpt lat="47.53015" lon="3.71155">
        <ele>251</ele>
        <time>2020-08-11T07:54:12+02:00</time>
      </trkpt>
      <trkpt lat="47.52907" lon="3.71061">
        <ele>257</ele>
        <time>2020-08-11T07:54:17+02:00</time>
      </trkpt>
      <trkpt lat="47.53014" lon="3.71022">
        <ele>258</ele>
        <time>2020-08-11T07:54:22+02:00</time>
      </trkpt>
      <trkpt lat="47.53122" lon="3.71033">
        <ele>255</ele>
        <time>2020-08-11T07:54:27+02:00</time>
      </trkpt>
      <trkpt lat="47.5328" lon="3.70984">
        <ele>255</ele>
        <time>2020-08-11T07:54:32+02:00</time>
      </trkpt>
      <trkpt lat="47.53457" lon="3.70913">
        <ele>249</ele>
        <time>2020-08-11T07:54:37+02:00</time>
      </trkpt>
      <trkpt lat="47.53559" lon="3.70902">
        <ele>237</ele>
        <time>2020-08-11T07:54:42+02:00</time>
      </trkpt>
      <trkpt lat="47.53504" lon="3.70684">
        <ele>237</ele>
        <time>2020-08-11T07:54:47+02:00</time>
      </trkpt>
      <trkpt lat="47.53448" lon="3.7058">
        <ele>235</ele>
        <time>2020-08-11T07:54:52+02:00</time>
      </trkpt>
      <trkpt lat="47.53412" lon="3.70473">
        <ele>236</ele>
        <time>2020-08-11T07:54:57+02:00</time>
      </trkpt>
      <trkpt lat="47.53338" lon="3.70269">
        <ele>234</ele>
        <time>2020-08-11T07:55:02+02:00</time>
      </trkpt>
      <trkpt lat="47.53396" lon="3.70245">
        <ele>243</ele>
        <time>2020-08-11T07:55:07+02:00</time>
      </trkpt>
      <trkpt lat="47.53343" lon="3.70168">
        <ele>235</ele>
        <time>2020-08-11T07:55:12+02:00</time>
      </trkpt>
      <trkpt lat="47.53353" lon="3.70112">
        <ele>236</ele>
        <time>2020-08-11T07:55:17+02:00</time>
      </trkpt>
      <trkpt lat="47.53363" lon="3.69974">
        <ele>232</ele>
        <time>2020-08-11T07:55:22+02:00</time>
      </trkpt>
      <trkpt lat="47.53382" lon="3.69852">
        <ele>228</ele>
        <time>2020-08-11T07:55:27+02:00</time>
      </trkpt>
      <trkpt lat="47.53378" lon="3.69734">
        <ele>220</ele>
        <time>2020-08-11T07:55:32+02:00</time>
      </trkpt>
      <trkpt lat="47.53426" lon="3.69631">
        <ele>214</ele>
        <time>2020-08-11T07:55:37+02:00</time>
      </trkpt>
      <trkpt lat="47.53437" lon="3.69574">
        <ele>210</ele>
        <time>2020-08-11T07:55:42+02:00</time>
      </trkpt>
      <trkpt lat="47.53434" lon="3.69511">
        <ele>207</ele>
        <time>2020-08-11T07:55:47+02:00</time>
      </trkpt>
      <trkpt lat="47.53431" lon="3.69441">
        <ele>204</ele>
        <time>2020-08-11T07:55:52+02:00</time>
      </trkpt>
      <trkpt lat="47.53416" lon="3.69375">
        <ele>203</ele>
        <time>2020-08-11T07:55:57+02:00</time>
      </trkpt>
      <trkpt lat="47.53532" lon="3.69231">
        <ele>200</ele>
        <time>2020-08-11T07:56:02+02:00</time>
      </trkpt>
      <trkpt lat="47.53461" lon="3.69158">
        <ele>196</ele>
        <time>2020-08-11T07:56:07+02:00</time>
      </trkpt>
      <trkpt lat="47.53322" lon="3.69098">
        <ele>197</ele>
        <time>2020-08-11T07:56:12+02:00</time>
      </trkpt>
      <trkpt lat="47.53285" lon="3.69065">
        <ele>196</ele>
        <time>2020-08-11T07:56:17+02:00</time>
      </trkpt>
      <trkpt lat="47.53269" lon="3.68998">
        <ele>194</ele>
        <time>2020-08-11T07:56:22+02:00</time>
      </trkpt>
      <trkpt lat="47.53247" lon="3.68956">
        <ele>193</ele>
        <time>2020-08-11T07:56:27+02:00</time>
      </trkpt>
      <trkpt lat="47.5324" lon="3.68909">
        <ele>191</ele>
        <time>2020-08-11T07:56:32+02:00</time>
      </trkpt>
      <trkpt lat="47.53219" lon="3.6885">
        <ele>187</ele>
        <time>2020-08-11T07:56:37+02:00</time>
      </trkpt>
      <trkpt lat="47.5316" lon="3.68825">
        <ele>185</ele>
        <time>2020-08-11T07:56:42+02:00</time>
      </trkpt>
      <trkpt lat="47.53037" lon="3.68754">
        <ele>178</ele>
        <time>2020-08-11T07:56:47+02:00</time>
      </trkpt>
      <trkpt lat="47.52882" lon="3.68801">
        <ele>180</ele>
        <time>2020-08-11T07:56:52+02:00</time>
      </trkpt>
      <trkpt lat="47.52752" lon="3.68769">
        <ele>183</ele>
        <time>2020-08-11T07:56:57+02:00</time>
      </trkpt>
      <trkpt lat="47.52641" lon="3.68653">
        <ele>181</ele>
        <time>2020-08-11T07:57:02+02:00</time>
      </trkpt>
      <trkpt lat="47.52541" lon="3.68636">
        <ele>180</ele>
        <time>2020-08-11T07:57:07+02:00</time>
      </trkpt>
      <trkpt lat="47.52482" lon="3.68717">
        <ele>188</ele>
        <time>2020-08-11T07:57:12+02:00</time>
      </trkpt>
      <trkpt lat="47.52314" lon="3.68754">
        <ele>202</ele>
        <time>2020-08-11T07:57:17+02:00</time>
      </trkpt>
      <trkpt lat="47.52188" lon="3.68722">
        <ele>204</ele>
        <time>2020-08-11T07:57:22+02:00</time>
      </trkpt>
      <trkpt lat="47.52173" lon="3.68825">
        <ele>213</ele>
        <time>2020-08-11T07:57:27+02:00</time>
      </trkpt>
      <trkpt lat="47.52157" lon="3.68931">
        <ele>217</ele>
        <time>2020-08-11T07:57:32+02:00</time>
      </trkpt>
      <trkpt lat="47.52108" lon="3.69188">
        <ele>222</ele>
        <time>2020-08-11T07:57:37+02:00</time>
      </trkpt>
      <trkpt lat="47.52106" lon="3.69312">
        <ele>223</ele>
        <time>2020-08-11T07:57:42+02:00</time>
      </trkpt>
      <trkpt lat="47.52119" lon="3.6939">
        <ele>223</ele>
        <time>2020-08-11T07:57:47+02:00</time>
      </trkpt>
      <trkpt lat="47.5213" lon="3.69473">
        <ele>224</ele>
        <time>2020-08-11T07:57:52+02:00</time>
      </trkpt>
      <trkpt lat="47.52125" lon="3.69563">
        <ele>224</ele>
        <time>2020-08-11T07:57:57+02:00</time>
      </trkpt>
      <trkpt lat="47.52115" lon="3.69644">
        <ele>226</ele>
        <time>2020-08-11T07:58:02+02:00</time>
      </trkpt>
      <trkpt lat="47.52109" lon="3.69744">
        <ele>229</ele>
        <time>2020-08-11T07:58:07+02:00</time>
      </trkpt>
      <trkpt lat="47.52111" lon="3.6986">
        <ele>232</ele>
        <time>2020-08-11T07:58:12+02:00</time>
      </trkpt>
      <trkpt lat="47.52173" lon="3.69866">
        <ele>232</ele>
        <time>2020-08-11T07:58:17+02:00</time>
      </trkpt>
      <trkpt lat="47.52209" lon="3.69894">
        <ele>232</ele>
        <time>2020-08-11T07:58:22+02:00</time>
      </trkpt>
      <trkpt lat="47.52267" lon="3.69896">
        <ele>230</ele>
        <time>2020-08-11T07:58:27+02:00</time>
      </trkpt>
      <trkpt lat="47.52275" lon="3.70083">
        <ele>242</ele>
        <time>2020-08-11T07:58:32+02:00</time>
      </trkpt>
      <trkpt lat="47.52232" lon="3.70226">
        <ele>250</ele>
        <time>2020-08-11T07:58:37+02:00</time>
      </trkpt>
      <trkpt lat="47.522" lon="3.70385">
        <ele>255</ele>
        <time>2020-08-11T07:58:42+02:00</time>
      </trkpt>
      <trkpt lat="47.52186" lon="3.70634">
        <ele>263</ele>
        <time>2020-08-11T07:58:47+02:00</time>
      </trkpt>
      <trkpt lat="47.52168" lon="3.7072">
        <ele>263</ele>
        <time>2020-08-11T07:58:52+02:00</time>
      </trkpt>
      <trkpt lat="47.52093" lon="3.70984">
        <ele>267</ele>
        <time>2020-08-11T07:58:57+02:00</time>
      </trkpt>
      <trkpt lat="47.52086" lon="3.71117">
        <ele>262</ele>
        <time>2020-08-11T07:59:02+02:00</time>
      </trkpt>
      <trkpt lat="47.52113" lon="3.71237">
        <ele>258</ele>
        <time>2020-08-11T07:59:07+02:00</time>
      </trkpt>
      <trkpt lat="47.52164" lon="3.71376">
        <ele>252</ele>
        <time>2020-08-11T07:59:12+02:00</time>
      </trkpt>
      <trkpt lat="47.52141" lon="3.71473">
        <ele>239</ele>
        <time>2020-08-11T07:59:17+02:00</time>
      </trkpt>
      <trkpt lat="47.52144" lon="3.71544">
        <ele>233</ele>
        <time>2020-08-11T07:59:22+02:00</time>
      </trkpt>
      <trkpt lat="47.52104" lon="3.71604">
        <ele>227</ele>
        <time>2020-08-11T07:59:27+02:00</time>
      </trkpt>
      <trkpt lat="47.52078" lon="3.71645">
        <ele>226</ele>
        <time>2020-08-11T07:59:32+02:00</time>
      </trkpt>
      <trkpt lat="47.51909" lon="3.71987">
        <ele>233</ele>
        <time>2020-08-11T07:59:37+02:00</time>
      </trkpt>
      <trkpt lat="47.51886" lon="3.71965">
        <ele>233</ele>
        <time>2020-08-11T07:59:42+02:00</time>
      </trkpt>
    </trkseg>
  </trk>
</gpx>